sensor_id;sensor_type;location;lat;lon;timestamp;pressure;altitude;pressure_sealevel;temperature;humidity
53506;BME280;39388;50.936;6.848;2022-12-11T00:01:17;100598.78;;;2.43;80.76
53506;BME280;39388;50.936;6.848;2022-12-11T00:03:48;100598.78;;;2.43;80.92
53506;BME280;39388;50.936;6.848;2022-12-11T00:06:21;100603.94;;;2.46;81.24
53506;BME280;39388;50.936;6.848;2022-12-11T00:08:52;100595.44;;;2.45;81.36
53506;BME280;39388;50.936;6.848;2022-12-11T00:11:23;100594.50;;;2.42;80.97
53506;BME280;39388;50.936;6.848;2022-12-11T00:13:54;100602.22;;;2.45;80.98
53506;BME280;39388;50.936;6.848;2022-12-11T00:16:24;100604.81;;;2.46;81.37
53506;BME280;39388;50.936;6.848;2022-12-11T00:18:54;100596.94;;;2.37;81.19
53506;BME280;39388;50.936;6.848;2022-12-11T00:21:25;100598.06;;;2.49;81.69
53506;BME280;39388;50.936;6.848;2022-12-11T00:23:55;100599.00;;;2.52;81.56
53506;BME280;39388;50.936;6.848;2022-12-11T00:26:26;100604.06;;;2.51;81.45
53506;BME280;39388;50.936;6.848;2022-12-11T00:28:56;100607.47;;;2.51;81.60
53506;BME280;39388;50.936;6.848;2022-12-11T00:31:26;100592.94;;;2.47;81.19
53506;BME280;39388;50.936;6.848;2022-12-11T00:33:57;100591.25;;;2.47;81.36
53506;BME280;39388;50.936;6.848;2022-12-11T00:36:27;100602.38;;;2.51;81.09
53506;BME280;39388;50.936;6.848;2022-12-11T00:38:58;100599.72;;;2.48;81.13
53506;BME280;39388;50.936;6.848;2022-12-11T00:41:28;100596.16;;;2.40;81.55
53506;BME280;39388;50.936;6.848;2022-12-11T00:43:59;100603.88;;;2.44;81.71
53506;BME280;39388;50.936;6.848;2022-12-11T00:46:29;100599.69;;;2.45;81.29
53506;BME280;39388;50.936;6.848;2022-12-11T00:49:00;100591.13;;;2.43;81.54
53506;BME280;39388;50.936;6.848;2022-12-11T00:51:30;100590.44;;;2.49;81.33
53506;BME280;39388;50.936;6.848;2022-12-11T00:54:02;100591.28;;;2.49;81.27
53506;BME280;39388;50.936;6.848;2022-12-11T00:56:32;100590.47;;;2.50;81.01
53506;BME280;39388;50.936;6.848;2022-12-11T00:59:03;100592.97;;;2.49;81.17
53506;BME280;39388;50.936;6.848;2022-12-11T01:01:33;100586.28;;;2.52;81.53
53506;BME280;39388;50.936;6.848;2022-12-11T01:04:04;100582.81;;;2.50;81.29
53506;BME280;39388;50.936;6.848;2022-12-11T01:06:34;100592.94;;;2.47;81.36
53506;BME280;39388;50.936;6.848;2022-12-11T01:09:04;100596.22;;;2.43;81.49
53506;BME280;39388;50.936;6.848;2022-12-11T01:11:53;100596.31;;;2.46;81.60
53506;BME280;39388;50.936;6.848;2022-12-11T01:14:25;100601.53;;;2.51;81.09
53506;BME280;39388;50.936;6.848;2022-12-11T01:16:55;100581.78;;;2.42;81.30
53506;BME280;39388;50.936;6.848;2022-12-11T01:19:26;100595.34;;;2.42;80.92
53506;BME280;39388;50.936;6.848;2022-12-11T01:21:57;100595.34;;;2.42;81.48
53506;BME280;39388;50.936;6.848;2022-12-11T01:24:28;100592.06;;;2.46;81.14
53506;BME280;39388;50.936;6.848;2022-12-11T01:26:58;100597.25;;;2.50;80.69
53506;BME280;39388;50.936;6.848;2022-12-11T01:29:29;100588.59;;;2.43;81.52
53506;BME280;39388;50.936;6.848;2022-12-11T01:31:59;100596.31;;;2.46;80.84
53506;BME280;39388;50.936;6.848;2022-12-11T01:34:31;100587.72;;;2.42;81.38
53506;BME280;39388;50.936;6.848;2022-12-11T01:37:02;100592.81;;;2.42;81.10
53506;BME280;39388;50.936;6.848;2022-12-11T01:39:32;100588.72;;;2.47;80.93
53506;BME280;39388;50.936;6.848;2022-12-11T01:42:03;100595.50;;;2.47;81.08
53506;BME280;39388;50.936;6.848;2022-12-11T01:47:06;100598.03;;;2.47;81.12
53506;BME280;39388;50.936;6.848;2022-12-11T01:49:38;100588.63;;;2.44;80.91
53506;BME280;39388;50.936;6.848;2022-12-11T01:52:18;100582.69;;;2.44;81.13
53506;BME280;39388;50.936;6.848;2022-12-11T01:54:50;100571.50;;;2.39;81.24
53506;BME280;39388;50.936;6.848;2022-12-11T01:57:21;100572.41;;;2.41;80.96
53506;BME280;39388;50.936;6.848;2022-12-11T01:59:51;100567.16;;;2.35;81.05
53506;BME280;39388;50.936;6.848;2022-12-11T02:02:27;100580.09;;;2.42;81.01
53506;BME280;39388;50.936;6.848;2022-12-11T02:05:01;100577.53;;;2.42;80.81
53506;BME280;39388;50.936;6.848;2022-12-11T02:07:45;100568.16;;;2.40;80.82
53506;BME280;39388;50.936;6.848;2022-12-11T02:10:16;100573.34;;;2.44;80.84
53506;BME280;39388;50.936;6.848;2022-12-11T02:12:56;100574.22;;;2.45;81.08
53506;BME280;39388;50.936;6.848;2022-12-11T02:15:35;100574.16;;;2.43;80.90
53506;BME280;39388;50.936;6.848;2022-12-11T02:18:16;100568.25;;;2.43;81.12
53506;BME280;39388;50.936;6.848;2022-12-11T02:20:54;100573.31;;;2.43;81.26
53506;BME280;39388;50.936;6.848;2022-12-11T02:26:44;100561.41;;;2.42;80.93
53506;BME280;39388;50.936;6.848;2022-12-11T02:29:29;100564.81;;;2.42;80.64
53506;BME280;39388;50.936;6.848;2022-12-11T02:32:09;100566.44;;;2.40;80.43
53506;BME280;39388;50.936;6.848;2022-12-11T02:37:23;100563.22;;;2.46;80.72
53506;BME280;39388;50.936;6.848;2022-12-11T02:39:56;100565.00;;;2.50;80.63
53506;BME280;39388;50.936;6.848;2022-12-11T02:42:29;100566.72;;;2.50;80.57
53506;BME280;39388;50.936;6.848;2022-12-11T02:45:00;100570.03;;;2.47;80.37
53506;BME280;39388;50.936;6.848;2022-12-11T02:47:34;100561.44;;;2.43;80.67
53506;BME280;39388;50.936;6.848;2022-12-11T02:50:09;100556.44;;;2.46;80.87
53506;BME280;39388;50.936;6.848;2022-12-11T02:52:42;100556.44;;;2.46;80.67
53506;BME280;39388;50.936;6.848;2022-12-11T02:55:14;100551.28;;;2.43;80.76
53506;BME280;39388;50.936;6.848;2022-12-11T02:58:01;100555.59;;;2.46;80.61
53506;BME280;39388;50.936;6.848;2022-12-11T03:00:33;100555.66;;;2.49;80.44
53506;BME280;39388;50.936;6.848;2022-12-11T03:03:04;100547.06;;;2.44;80.14
53506;BME280;39388;50.936;6.848;2022-12-11T03:05:34;100545.25;;;2.40;80.76
53506;BME280;39388;50.936;6.848;2022-12-11T03:08:05;100548.63;;;2.39;80.67
53506;BME280;39388;50.936;6.848;2022-12-11T03:10:35;100548.63;;;2.40;80.25
53506;BME280;39388;50.936;6.848;2022-12-11T03:13:05;100548.69;;;2.42;80.56
53506;BME280;39388;50.936;6.848;2022-12-11T03:16:03;100559.81;;;2.45;80.60
53506;BME280;39388;50.936;6.848;2022-12-11T03:18:41;100555.50;;;2.43;80.53
53506;BME280;39388;50.936;6.848;2022-12-11T03:21:23;100555.50;;;2.43;80.68
53506;BME280;39388;50.936;6.848;2022-12-11T03:24:22;100561.44;;;2.43;80.35
53506;BME280;39388;50.936;6.848;2022-12-11T03:27:02;100551.19;;;2.40;80.79
53506;BME280;39388;50.936;6.848;2022-12-11T03:29:39;100558.97;;;2.45;80.67
53506;BME280;39388;50.936;6.848;2022-12-11T03:32:18;100562.34;;;2.45;80.56
53506;BME280;39388;50.936;6.848;2022-12-11T03:35:17;100560.69;;;2.46;80.64
53506;BME280;39388;50.936;6.848;2022-12-11T03:37:50;100557.34;;;2.49;80.50
53506;BME280;39388;50.936;6.848;2022-12-11T03:40:23;100555.66;;;2.49;80.15
53506;BME280;39388;50.936;6.848;2022-12-11T03:42:55;100561.66;;;2.51;80.14
53506;BME280;39388;50.936;6.848;2022-12-11T03:45:27;100560.75;;;2.49;80.05
53506;BME280;39388;50.936;6.848;2022-12-11T03:48:00;100548.84;;;2.48;79.95
53506;BME280;39388;50.936;6.848;2022-12-11T03:50:32;100556.41;;;2.45;79.90
53506;BME280;39388;50.936;6.848;2022-12-11T03:53:03;100561.50;;;2.45;80.18
53506;BME280;39388;50.936;6.848;2022-12-11T03:55:36;100561.53;;;2.46;80.24
53506;BME280;39388;50.936;6.848;2022-12-11T03:58:07;100553.06;;;2.46;80.44
53506;BME280;39388;50.936;6.848;2022-12-11T04:00:38;100561.56;;;2.48;80.56
53506;BME280;39388;50.936;6.848;2022-12-11T04:03:08;100553.09;;;2.49;80.00
53506;BME280;39388;50.936;6.848;2022-12-11T04:05:50;100551.47;;;2.51;80.28
53506;BME280;39388;50.936;6.848;2022-12-11T04:08:21;100547.28;;;2.53;80.21
53506;BME280;39388;50.936;6.848;2022-12-11T04:10:52;100537.91;;;2.51;80.11
53506;BME280;39388;50.936;6.848;2022-12-11T04:13:41;100534.56;;;2.53;80.42
53506;BME280;39388;50.936;6.848;2022-12-11T04:16:11;100536.97;;;2.47;80.10
53506;BME280;39388;50.936;6.848;2022-12-11T04:18:42;100542.09;;;2.49;80.19
53506;BME280;39388;50.936;6.848;2022-12-11T04:21:31;100537.81;;;2.47;80.20
53506;BME280;39388;50.936;6.848;2022-12-11T04:24:19;100536.97;;;2.47;80.13
53506;BME280;39388;50.936;6.848;2022-12-11T04:26:50;100531.03;;;2.48;80.01
53506;BME280;39388;50.936;6.848;2022-12-11T04:29:20;100527.59;;;2.46;80.39
53506;BME280;39388;50.936;6.848;2022-12-11T04:31:50;100525.91;;;2.46;79.86
53506;BME280;39388;50.936;6.848;2022-12-11T04:34:21;100536.09;;;2.48;80.60
53506;BME280;39388;50.936;6.848;2022-12-11T04:36:51;100533.56;;;2.48;80.44
53506;BME280;39388;50.936;6.848;2022-12-11T04:39:22;100536.16;;;2.50;80.19
53506;BME280;39388;50.936;6.848;2022-12-11T04:41:52;100511.25;;;2.38;80.18
53506;BME280;39388;50.936;6.848;2022-12-11T04:44:22;100530.28;;;2.52;79.94
53506;BME280;39388;50.936;6.848;2022-12-11T04:46:53;100523.53;;;2.53;80.17
53506;BME280;39388;50.936;6.848;2022-12-11T04:49:23;100526.91;;;2.52;80.13
53506;BME280;39388;50.936;6.848;2022-12-11T04:51:53;100512.25;;;2.43;80.38
53506;BME280;39388;50.936;6.848;2022-12-11T04:54:24;100524.28;;;2.50;80.13
53506;BME280;39388;50.936;6.848;2022-12-11T04:56:54;100525.09;;;2.47;80.25
53506;BME280;39388;50.936;6.848;2022-12-11T04:59:24;100522.50;;;2.46;80.68
53506;BME280;39388;50.936;6.848;2022-12-11T05:01:55;100517.38;;;2.44;80.37
53506;BME280;39388;50.936;6.848;2022-12-11T05:04:29;100521.63;;;2.45;80.60
53506;BME280;39388;50.936;6.848;2022-12-11T05:07:01;100517.22;;;2.38;80.75
53506;BME280;39388;50.936;6.848;2022-12-11T05:09:31;100528.44;;;2.45;80.38
53506;BME280;39388;50.936;6.848;2022-12-11T05:12:02;100523.28;;;2.43;80.38
53506;BME280;39388;50.936;6.848;2022-12-11T05:14:32;100524.19;;;2.45;80.03
53506;BME280;39388;50.936;6.848;2022-12-11T05:17:03;100530.19;;;2.49;79.96
53506;BME280;39388;50.936;6.848;2022-12-11T05:19:33;100510.56;;;2.43;80.21
53506;BME280;39388;50.936;6.848;2022-12-11T05:22:03;100510.63;;;2.46;80.31
53506;BME280;39388;50.936;6.848;2022-12-11T05:24:34;100525.06;;;2.46;80.50
53506;BME280;39388;50.936;6.848;2022-12-11T05:27:04;100506.25;;;2.41;80.22
53506;BME280;39388;50.936;6.848;2022-12-11T05:29:35;100519.09;;;2.45;80.34
53506;BME280;39388;50.936;6.848;2022-12-11T05:32:05;100514.91;;;2.47;80.34
53506;BME280;39388;50.936;6.848;2022-12-11T05:34:36;100512.28;;;2.44;80.30
53506;BME280;39388;50.936;6.848;2022-12-11T05:37:06;100511.53;;;2.49;80.40
53506;BME280;39388;50.936;6.848;2022-12-11T05:39:37;100505.38;;;2.40;80.60
53506;BME280;39388;50.936;6.848;2022-12-11T05:42:07;100507.25;;;2.46;80.23
53506;BME280;39388;50.936;6.848;2022-12-11T05:44:38;100502.16;;;2.46;80.04
53506;BME280;39388;50.936;6.848;2022-12-11T05:47:08;100498.66;;;2.42;80.70
53506;BME280;39388;50.936;6.848;2022-12-11T05:49:38;100508.19;;;2.50;80.20
53506;BME280;39388;50.936;6.848;2022-12-11T05:52:09;100491.91;;;2.44;80.37
53506;BME280;39388;50.936;6.848;2022-12-11T05:54:39;100505.56;;;2.48;80.54
53506;BME280;39388;50.936;6.848;2022-12-11T05:57:09;100501.25;;;2.44;80.55
53506;BME280;39388;50.936;6.848;2022-12-11T05:59:40;100498.72;;;2.44;80.74
53506;BME280;39388;50.936;6.848;2022-12-11T06:02:10;100498.66;;;2.42;80.41
53506;BME280;39388;50.936;6.848;2022-12-11T06:04:40;100494.34;;;2.40;80.81
53506;BME280;39388;50.936;6.848;2022-12-11T06:07:12;100507.09;;;2.41;80.89
53506;BME280;39388;50.936;6.848;2022-12-11T06:09:42;100511.31;;;2.39;80.80
53506;BME280;39388;50.936;6.848;2022-12-11T06:12:13;100510.53;;;2.42;80.73
53506;BME280;39388;50.936;6.848;2022-12-11T06:14:43;100506.28;;;2.42;80.56
53506;BME280;39388;50.936;6.848;2022-12-11T06:17:13;100496.97;;;2.43;80.82
53506;BME280;39388;50.936;6.848;2022-12-11T06:19:44;100495.28;;;2.43;80.87
53506;BME280;39388;50.936;6.848;2022-12-11T06:22:14;100496.06;;;2.41;81.06
53506;BME280;39388;50.936;6.848;2022-12-11T06:24:44;100498.63;;;2.41;81.12
53506;BME280;39388;50.936;6.848;2022-12-11T06:27:15;100494.25;;;2.35;80.74
53506;BME280;39388;50.936;6.848;2022-12-11T06:29:45;100495.97;;;2.36;81.15
53506;BME280;39388;50.936;6.848;2022-12-11T06:32:15;100494.25;;;2.35;81.38
53506;BME280;39388;50.936;6.848;2022-12-11T06:34:46;100490.81;;;2.35;81.28
53506;BME280;39388;50.936;6.848;2022-12-11T06:37:17;100499.41;;;2.38;81.00
53506;BME280;39388;50.936;6.848;2022-12-11T06:39:47;100495.19;;;2.39;81.48
53506;BME280;39388;50.936;6.848;2022-12-11T06:42:17;100499.34;;;2.35;81.06
53506;BME280;39388;50.936;6.848;2022-12-11T06:44:48;100495.19;;;2.39;81.48
53506;BME280;39388;50.936;6.848;2022-12-11T06:47:18;100501.16;;;2.39;81.45
53506;BME280;39388;50.936;6.848;2022-12-11T06:49:48;100501.97;;;2.38;81.75
53506;BME280;39388;50.936;6.848;2022-12-11T06:55:10;100508.78;;;2.39;81.86
53506;BME280;39388;50.936;6.848;2022-12-11T06:57:41;100512.16;;;2.40;81.30
53506;BME280;39388;50.936;6.848;2022-12-11T07:00:12;100504.50;;;2.38;81.46
53506;BME280;39388;50.936;6.848;2022-12-11T07:02:42;100504.50;;;2.38;81.72
53506;BME280;39388;50.936;6.848;2022-12-11T07:05:13;100489.91;;;2.31;81.64
53506;BME280;39388;50.936;6.848;2022-12-11T07:07:43;100510.41;;;2.37;81.66
53506;BME280;39388;50.936;6.848;2022-12-11T07:10:14;100508.63;;;2.35;81.12
53506;BME280;39388;50.936;6.848;2022-12-11T07:12:44;100505.97;;;2.30;82.00
53506;BME280;39388;50.936;6.848;2022-12-11T07:15:14;100512.00;;;2.34;81.79
53506;BME280;39388;50.936;6.848;2022-12-11T07:17:45;100507.81;;;2.36;81.67
53506;BME280;39388;50.936;6.848;2022-12-11T07:20:15;100500.97;;;2.33;81.69
53506;BME280;39388;50.936;6.848;2022-12-11T07:22:46;100492.25;;;2.23;82.25
53506;BME280;39388;50.936;6.848;2022-12-11T07:25:16;100517.09;;;2.34;82.02
53506;BME280;39388;50.936;6.848;2022-12-11T07:27:47;100514.50;;;2.30;81.97
53506;BME280;39388;50.936;6.848;2022-12-11T07:30:17;100509.41;;;2.30;81.82
53506;BME280;39388;50.936;6.848;2022-12-11T07:32:48;100508.59;;;2.33;81.86
53506;BME280;39388;50.936;6.848;2022-12-11T07:35:18;100507.78;;;2.34;81.74
53506;BME280;39388;50.936;6.848;2022-12-11T07:37:48;100516.31;;;2.36;82.10
53506;BME280;39388;50.936;6.848;2022-12-11T07:40:19;100510.41;;;2.37;82.03
53506;BME280;39388;50.936;6.848;2022-12-11T07:42:49;100503.63;;;2.38;82.10
53506;BME280;39388;50.936;6.848;2022-12-11T07:45:19;100503.69;;;2.39;81.49
53506;BME280;39388;50.936;6.848;2022-12-11T07:47:50;100495.03;;;2.33;81.88
53506;BME280;39388;50.936;6.848;2022-12-11T07:50:21;100500.88;;;2.30;81.69
53506;BME280;39388;50.936;6.848;2022-12-11T07:52:51;100512.06;;;2.35;81.60
53506;BME280;39388;50.936;6.848;2022-12-11T07:55:22;100503.44;;;2.30;82.24
53506;BME280;39388;50.936;6.848;2022-12-11T07:57:52;100511.25;;;2.36;82.07
53506;BME280;39388;50.936;6.848;2022-12-11T08:00:22;100504.25;;;2.29;81.94
53506;BME280;39388;50.936;6.848;2022-12-11T08:02:53;100504.31;;;2.30;81.97
53506;BME280;39388;50.936;6.848;2022-12-11T08:05:23;100498.44;;;2.33;81.97
53506;BME280;39388;50.936;6.848;2022-12-11T08:07:54;100506.97;;;2.35;82.17
53506;BME280;39388;50.936;6.848;2022-12-11T08:10:25;100502.78;;;2.37;81.98
53506;BME280;39388;50.936;6.848;2022-12-11T08:12:56;100521.53;;;2.41;81.68
53506;BME280;39388;50.936;6.848;2022-12-11T08:15:26;100508.78;;;2.39;81.60
53506;BME280;39388;50.936;6.848;2022-12-11T08:17:57;100514.81;;;2.44;81.77
53506;BME280;39388;50.936;6.848;2022-12-11T08:20:27;100504.66;;;2.44;81.41
53506;BME280;39388;50.936;6.848;2022-12-11T08:22:59;100505.53;;;2.46;81.27
53506;BME280;39388;50.936;6.848;2022-12-11T08:25:30;100495.44;;;2.50;81.62
53506;BME280;39388;50.936;6.848;2022-12-11T08:28:00;100508.25;;;2.53;81.54
53506;BME280;39388;50.936;6.848;2022-12-11T08:30:31;100508.25;;;2.53;81.51
53506;BME280;39388;50.936;6.848;2022-12-11T08:33:01;100506.53;;;2.52;81.28
53506;BME280;39388;50.936;6.848;2022-12-11T08:35:32;100505.75;;;2.56;81.45
53506;BME280;39388;50.936;6.848;2022-12-11T08:38:02;100503.22;;;2.56;81.61
53506;BME280;39388;50.936;6.848;2022-12-11T08:40:32;100482.75;;;2.51;81.52
53506;BME280;39388;50.936;6.848;2022-12-11T08:43:03;100503.38;;;2.62;81.15
53506;BME280;39388;50.936;6.848;2022-12-11T08:45:33;100502.63;;;2.66;81.30
53506;BME280;39388;50.936;6.848;2022-12-11T08:48:04;100506.13;;;2.71;81.18
53506;BME280;39388;50.936;6.848;2022-12-11T08:50:35;100505.38;;;2.75;81.17
53506;BME280;39388;50.936;6.848;2022-12-11T08:53:06;100495.03;;;2.69;81.26
53506;BME280;39388;50.936;6.848;2022-12-11T08:55:36;100500.19;;;2.71;80.96
53506;BME280;39388;50.936;6.848;2022-12-11T08:58:07;100503.69;;;2.76;81.35
53506;BME280;39388;50.936;6.848;2022-12-11T09:00:37;100507.09;;;2.75;81.22
53506;BME280;39388;50.936;6.848;2022-12-11T09:03:07;100506.28;;;2.77;81.21
53506;BME280;39388;50.936;6.848;2022-12-11T09:05:38;100509.84;;;2.84;81.17
53506;BME280;39388;50.936;6.848;2022-12-11T09:08:09;100507.28;;;2.84;81.04
53506;BME280;39388;50.936;6.848;2022-12-11T09:10:39;100513.28;;;2.86;81.24
53506;BME280;39388;50.936;6.848;2022-12-11T09:13:09;100509.03;;;2.87;81.22
53506;BME280;39388;50.936;6.848;2022-12-11T09:15:40;100517.59;;;2.90;81.03
53506;BME280;39388;50.936;6.848;2022-12-11T09:18:10;100507.41;;;2.90;80.96
53506;BME280;39388;50.936;6.848;2022-12-11T09:20:41;100511.66;;;2.90;81.16
53506;BME280;39388;50.936;6.848;2022-12-11T09:23:11;100495.53;;;2.89;81.12
53506;BME280;39388;50.936;6.848;2022-12-11T09:25:41;100492.94;;;2.88;81.04
53506;BME280;39388;50.936;6.848;2022-12-11T09:28:12;100492.94;;;2.88;80.98
53506;BME280;39388;50.936;6.848;2022-12-11T09:30:42;100500.66;;;2.91;80.94
53506;BME280;39388;50.936;6.848;2022-12-11T09:33:13;100507.56;;;2.95;80.90
53506;BME280;39388;50.936;6.848;2022-12-11T09:35:43;100504.19;;;2.96;80.86
53506;BME280;39388;50.936;6.848;2022-12-11T09:38:14;100503.44;;;3.02;80.89
53506;BME280;39388;50.936;6.848;2022-12-11T09:40:44;100506.00;;;3.02;80.59
53506;BME280;39388;50.936;6.848;2022-12-11T09:43:43;100499.22;;;3.02;80.29
53506;BME280;39388;50.936;6.848;2022-12-11T09:46:16;100500.19;;;3.09;80.21
53506;BME280;39388;50.936;6.848;2022-12-11T09:48:48;100500.19;;;3.09;80.17
53506;BME280;39388;50.936;6.848;2022-12-11T09:51:41;100506.03;;;3.05;80.39
53506;BME280;39388;50.936;6.848;2022-12-11T09:54:14;100508.72;;;3.10;80.52
53506;BME280;39388;50.936;6.848;2022-12-11T09:57:02;100507.09;;;3.13;80.24
53506;BME280;39388;50.936;6.848;2022-12-11T10:06:21;100494.38;;;3.15;80.14
53506;BME280;39388;50.936;6.848;2022-12-11T10:09:17;100493.59;;;3.17;80.06
53506;BME280;39388;50.936;6.848;2022-12-11T10:14:38;100485.91;;;3.16;79.85
53506;BME280;39388;50.936;6.848;2022-12-11T10:17:17;100486.78;;;3.16;80.22
53506;BME280;39388;50.936;6.848;2022-12-11T10:19:49;100479.09;;;3.15;80.42
53506;BME280;39388;50.936;6.848;2022-12-11T10:22:23;100483.44;;;3.19;80.23
53506;BME280;39388;50.936;6.848;2022-12-11T10:25:04;100472.41;;;3.18;80.42
53506;BME280;39388;50.936;6.848;2022-12-11T10:27:38;100472.50;;;3.23;80.41
53506;BME280;39388;50.936;6.848;2022-12-11T10:30:22;100476.75;;;3.24;80.22
53506;BME280;39388;50.936;6.848;2022-12-11T10:35:38;100461.16;;;3.08;80.00
53506;BME280;39388;50.936;6.848;2022-12-11T10:38:14;100460.25;;;3.06;80.66
53506;BME280;39388;50.936;6.848;2022-12-11T10:40:53;100473.16;;;3.14;80.41
53506;BME280;39388;50.936;6.848;2022-12-11T10:43:44;100463.03;;;3.17;80.39
53506;BME280;39388;50.936;6.848;2022-12-11T10:46:18;100458.75;;;3.16;80.31
53506;BME280;39388;50.936;6.848;2022-12-11T10:51:42;100457.72;;;3.08;80.46
53506;BME280;39388;50.936;6.848;2022-12-11T10:54:32;100452.72;;;3.13;80.75
53506;BME280;39388;50.936;6.848;2022-12-11T10:57:07;100454.59;;;3.20;80.33
53506;BME280;39388;50.936;6.848;2022-12-11T11:04:59;100436.91;;;3.28;79.58
53506;BME280;39388;50.936;6.848;2022-12-11T11:07:30;100442.91;;;3.30;79.70
53506;BME280;39388;50.936;6.848;2022-12-11T11:12:47;100444.78;;;3.40;79.71
53506;BME280;39388;50.936;6.848;2022-12-11T11:15:23;100450.84;;;3.45;79.69
53506;BME280;39388;50.936;6.848;2022-12-11T11:17:57;100442.34;;;3.45;79.78
53506;BME280;39388;50.936;6.848;2022-12-11T11:20:30;100438.88;;;3.43;79.72
53506;BME280;39388;50.936;6.848;2022-12-11T11:23:11;100437.22;;;3.43;79.35
53506;BME280;39388;50.936;6.848;2022-12-11T11:26:09;100436.31;;;3.41;79.55
53506;BME280;39388;50.936;6.848;2022-12-11T11:28:46;100437.97;;;3.37;79.73
53506;BME280;39388;50.936;6.848;2022-12-11T11:31:18;100421.69;;;3.31;79.92
53506;BME280;39388;50.936;6.848;2022-12-11T11:33:55;100433.78;;;3.41;80.05
53506;BME280;39388;50.936;6.848;2022-12-11T11:36:28;100394.25;;;3.19;79.92
53506;BME280;39388;50.936;6.848;2022-12-11T11:39:19;100426.13;;;3.41;79.72
53506;BME280;39388;50.936;6.848;2022-12-11T11:41:57;100421.88;;;3.42;79.72
53506;BME280;39388;50.936;6.848;2022-12-11T11:44:34;100345.38;;;2.94;79.74
53506;BME280;39388;50.936;6.848;2022-12-11T11:47:14;100391.88;;;3.27;79.67
53506;BME280;39388;50.936;6.848;2022-12-11T11:52:26;100379.03;;;3.22;79.81
53506;BME280;39388;50.936;6.848;2022-12-11T11:55:36;100417.66;;;3.44;79.71
53506;BME280;39388;50.936;6.848;2022-12-11T11:58:44;100370.44;;;3.17;79.32
53506;BME280;39388;50.936;6.848;2022-12-11T12:01:19;100407.31;;;3.34;79.04
53506;BME280;39388;50.936;6.848;2022-12-11T12:03:50;100331.00;;;2.96;79.75
53506;BME280;39388;50.936;6.848;2022-12-11T12:06:27;100407.59;;;3.50;79.24
53506;BME280;39388;50.936;6.848;2022-12-11T12:09:20;100376.56;;;3.27;79.39
53506;BME280;39388;50.936;6.848;2022-12-11T12:12:15;100349.97;;;3.14;79.79
53506;BME280;39388;50.936;6.848;2022-12-11T12:27:12;100380.47;;;3.53;78.70
53506;BME280;39388;50.936;6.848;2022-12-11T12:29:56;100398.31;;;3.52;79.03
53506;BME280;39388;50.936;6.848;2022-12-11T12:40:50;100388.75;;;3.42;78.91
53506;BME280;39388;50.936;6.848;2022-12-11T12:43:49;100387.97;;;3.44;79.06
53506;BME280;39388;50.936;6.848;2022-12-11T12:49:00;100383.25;;;3.66;78.85
53506;BME280;39388;50.936;6.848;2022-12-11T12:51:31;100373.34;;;3.83;78.17
53506;BME280;39388;50.936;6.848;2022-12-11T12:54:02;100378.69;;;3.97;77.95
53506;BME280;39388;50.936;6.848;2022-12-11T12:56:35;100375.34;;;4.01;77.71
53506;BME280;39388;50.936;6.848;2022-12-11T12:59:18;100373.50;;;3.94;77.40
53506;BME280;39388;50.936;6.848;2022-12-11T13:01:55;100381.91;;;3.87;77.11
53506;BME280;39388;50.936;6.848;2022-12-11T13:04:35;100383.63;;;3.88;77.60
53506;BME280;39388;50.936;6.848;2022-12-11T13:07:16;100380.97;;;3.81;77.48
53506;BME280;39388;50.936;6.848;2022-12-11T13:10:29;100364.78;;;3.79;77.75
53506;BME280;39388;50.936;6.848;2022-12-11T13:13:00;100366.56;;;3.83;77.88
53506;BME280;39388;50.936;6.848;2022-12-11T13:15:41;100371.78;;;3.90;77.39
53506;BME280;39388;50.936;6.848;2022-12-11T13:18:33;100375.16;;;3.89;77.56
53506;BME280;39388;50.936;6.848;2022-12-11T13:21:30;100377.69;;;3.89;77.75
53506;BME280;39388;50.936;6.848;2022-12-11T13:26:40;100360.75;;;3.94;77.60
53506;BME280;39388;50.936;6.848;2022-12-11T13:29:37;100367.69;;;4.01;77.37
53506;BME280;39388;50.936;6.848;2022-12-11T13:34:42;100371.97;;;4.04;77.44
53506;BME280;39388;50.936;6.848;2022-12-11T13:39:53;100367.59;;;3.95;77.37
53506;BME280;39388;50.936;6.848;2022-12-11T13:42:31;100377.84;;;3.99;77.56
53506;BME280;39388;50.936;6.848;2022-12-11T13:45:03;100378.69;;;3.97;77.58
53506;BME280;39388;50.936;6.848;2022-12-11T13:47:34;100382.88;;;3.95;77.55
53506;BME280;39388;50.936;6.848;2022-12-11T13:50:21;100384.59;;;3.96;77.34
53506;BME280;39388;50.936;6.848;2022-12-11T13:52:54;100380.25;;;3.90;77.48
53506;BME280;39388;50.936;6.848;2022-12-11T13:55:29;100379.31;;;3.83;77.41
53506;BME280;39388;50.936;6.848;2022-12-11T13:58:00;100378.47;;;3.83;77.17
53506;BME280;39388;50.936;6.848;2022-12-11T14:00:31;100379.09;;;3.73;77.75
53506;BME280;39388;50.936;6.848;2022-12-11T14:03:04;100391.09;;;3.77;77.40
53506;BME280;39388;50.936;6.848;2022-12-11T14:05:36;100391.94;;;3.77;77.79
53506;BME280;39388;50.936;6.848;2022-12-11T14:08:07;100391.97;;;3.79;77.54
53506;BME280;39388;50.936;6.848;2022-12-11T14:10:39;100386.81;;;3.76;77.52
53506;BME280;39388;50.936;6.848;2022-12-11T14:13:22;100387.63;;;3.73;77.25
53506;BME280;39388;50.936;6.848;2022-12-11T14:15:54;100389.34;;;3.74;77.43
53506;BME280;39388;50.936;6.848;2022-12-11T14:18:29;100386.75;;;3.73;77.09
53506;BME280;39388;50.936;6.848;2022-12-11T14:21:03;100388.41;;;3.69;77.33
53506;BME280;39388;50.936;6.848;2022-12-11T14:23:36;100389.16;;;3.63;76.96
53506;BME280;39388;50.936;6.848;2022-12-11T14:26:16;100402.94;;;3.73;77.11
53506;BME280;39388;50.936;6.848;2022-12-11T14:28:48;100390.88;;;3.66;77.10
53506;BME280;39388;50.936;6.848;2022-12-11T14:31:40;100405.47;;;3.73;77.01
53506;BME280;39388;50.936;6.848;2022-12-11T14:34:16;100407.22;;;3.74;76.65
53506;BME280;39388;50.936;6.848;2022-12-11T14:36:48;100401.91;;;3.63;76.75
53506;BME280;39388;50.936;6.848;2022-12-11T14:39:30;100413.88;;;3.67;76.45
53506;BME280;39388;50.936;6.848;2022-12-11T14:42:12;100414.66;;;3.63;76.40
53506;BME280;39388;50.936;6.848;2022-12-11T14:45:35;100403.50;;;3.58;76.70